Time;durP1;ratioP1;P1;durP2;ratioP2;P2;SDS_P1;SDS_P2;PMS_P1;PMS_P2;Temp;Humidity;BMP_temperature;BMP_pressure;BME280_temperature;BME280_humidity;BME280_pressure;Samples;Min_cycle;Max_cycle;Signal;HPM_P1;HPM_P2
2021/03/19 00:00:08;;;;;;;8.80;6.30;;;;;;;6.59;63.29;100166.54;1763538;81;21159;-56
2021/03/19 00:02:39;;;;;;;11.60;7.53;;;;;;;6.60;63.30;100164.36;1744179;81;21114;-64
2021/03/19 00:05:12;;;;;;;9.00;6.33;;;;;;;6.60;63.32;100168.28;1757726;81;21135;-64
2021/03/19 00:07:47;;;;;;;8.65;6.35;;;;;;;6.64;63.27;100162.16;1763552;81;21252;-64
2021/03/19 00:10:19;;;;;;;9.65;6.15;;;;;;;6.65;63.19;100161.73;1751369;81;21174;-54
2021/03/19 00:12:49;;;;;;;11.10;7.00;;;;;;;6.64;63.24;100166.53;1745076;81;21115;-55
2021/03/19 00:15:21;;;;;;;9.33;7.00;;;;;;;6.65;63.21;100163.05;1763624;81;21119;-64
2021/03/19 00:17:49;;;;;;;8.25;6.40;;;;;;;6.65;63.16;100157.81;1763661;81;21276;-64
2021/03/19 00:20:19;;;;;;;11.18;6.92;;;;;;;6.60;63.25;100156.52;1757995;81;21131;-64
2021/03/19 00:22:47;;;;;;;9.53;7.00;;;;;;;6.64;63.18;100163.46;1753424;81;21200;-55
2021/03/19 00:25:15;;;;;;;9.60;6.90;;;;;;;6.62;63.14;100156.08;1752824;81;21143;-64
2021/03/19 00:27:43;;;;;;;10.75;6.85;;;;;;;6.62;63.16;100156.08;1748023;81;21128;-64
2021/03/19 00:30:13;;;;;;;12.28;7.95;;;;;;;6.54;63.40;100159.13;1746019;81;21515;-64
2021/03/19 00:32:42;;;;;;;11.35;7.22;;;;;;;6.57;63.29;100159.55;1748531;81;21195;-56
2021/03/19 00:35:12;;;;;;;9.37;6.63;;;;;;;6.59;63.31;100152.58;1747248;81;21575;-55
2021/03/19 00:37:39;;;;;;;10.35;7.17;;;;;;;6.60;63.21;100146.05;1748046;81;21127;-55
2021/03/19 00:40:10;;;;;;;11.03;7.72;;;;;;;6.62;63.22;100152.58;1744350;81;21270;-54
2021/03/19 00:42:38;;;;;;;;;;;;;;;6.66;63.00;100156.94;1766157;81;21115;-64
2021/03/19 00:45:08;;;;;;;8.38;6.03;;;;;;;6.69;62.98;100155.64;1753773;81;20164;-64
2021/03/19 00:47:36;;;;;;;10.90;6.83;;;;;;;6.66;63.07;100161.72;1747041;81;21447;-64
2021/03/19 00:50:10;;;;;;;10.68;6.58;;;;;;;6.66;63.03;100157.80;1747982;81;21115;-64
2021/03/19 00:52:38;;;;;;;10.55;7.22;;;;;;;6.61;63.04;100156.95;1748211;82;21731;-64
2021/03/19 00:55:10;;;;;;;9.05;6.33;;;;;;;6.62;63.07;100157.81;1747286;81;21575;-64
2021/03/19 00:57:37;;;;;;;9.38;6.47;;;;;;;6.62;63.06;100155.20;1747138;81;21184;-55
2021/03/19 01:00:07;;;;;;;11.35;6.97;;;;;;;6.64;63.01;100154.31;1712297;82;21150;-55
2021/03/19 01:02:35;;;;;;;9.25;7.00;;;;;;;6.68;62.92;100155.20;1748402;81;21659;-55
2021/03/19 01:05:08;;;;;;;10.85;6.97;;;;;;;6.69;62.78;100153.02;1746850;81;21159;-64
2021/03/19 01:07:36;;;;;;;8.95;6.60;;;;;;;6.68;62.71;100158.67;1747441;81;21152;-65
2021/03/19 01:10:08;;;;;;;8.60;6.17;;;;;;;6.67;62.77;100153.45;1746837;82;21151;-65
2021/03/19 01:12:36;;;;;;;8.18;6.08;;;;;;;6.65;62.84;100153.89;1744121;81;21143;-55
2021/03/19 01:15:06;;;;;;;7.62;5.58;;;;;;;6.62;62.89;100153.89;1742098;81;21143;-55
2021/03/19 01:17:34;;;;;;;8.55;6.58;;;;;;;6.61;62.91;100153.45;1754453;81;21156;-55
2021/03/19 01:20:10;;;;;;;7.80;6.37;;;;;;;6.60;62.93;100151.70;1754117;81;21127;-64
2021/03/19 01:22:38;;;;;;;9.40;6.60;;;;;;;6.58;62.94;100153.45;1746851;81;21140;-64
2021/03/19 01:25:10;;;;;;;10.00;7.28;;;;;;;6.59;62.99;100156.08;1746856;81;21135;-64
2021/03/19 01:27:38;;;;;;;8.73;6.65;;;;;;;6.59;62.98;100149.55;1760775;81;21520;-55
2021/03/19 01:30:08;;;;;;;8.08;6.67;;;;;;;6.54;63.09;100149.97;1754174;81;21285;-64
2021/03/19 01:32:36;;;;;;;;;;;;;;;6.49;63.14;100156.48;1749602;82;21159;-64
2021/03/19 01:35:07;;;;;;;8.13;6.40;;;;;;;6.52;63.06;100155.18;1746557;81;20179;-64
2021/03/19 01:37:34;;;;;;;8.15;5.85;;;;;;;6.49;63.12;100158.24;1748119;81;21303;-64
2021/03/19 01:40:06;;;;;;;8.85;6.50;;;;;;;6.44;63.30;100156.91;1747084;81;21143;-64
2021/03/19 01:42:44;;;;;;;7.75;6.28;;;;;;;6.46;63.25;100155.63;1747807;81;21185;-55
2021/03/19 01:46:08;;;;;;;10.68;6.45;;;;;;;6.47;63.16;100154.30;1737327;81;21146;-55
2021/03/19 01:49:34;;;;;;;8.30;6.65;;;;;;;6.43;63.29;100158.23;1712378;83;21319;-61
2021/03/19 01:52:53;;;;;;;8.08;6.00;;;;;;;6.45;63.33;100160.41;1708237;84;21570;-55
2021/03/19 01:56:21;;;;;;;8.03;6.30;;;;;;;6.52;63.29;100156.48;1823753;77;22610;-54
2021/03/19 01:59:45;;;;;;;8.78;6.50;;;;;;;6.48;63.27;100163.89;1763232;81;21623;-56
2021/03/19 02:03:08;;;;;;;9.68;7.35;;;;;;;6.47;63.25;100165.21;1761778;81;21162;-54
2021/03/19 02:06:33;;;;;;;9.28;6.72;;;;;;;6.45;63.33;100168.27;1761650;81;21150;-65
2021/03/19 02:09:57;;;;;;;10.20;6.47;;;;;;;6.47;63.23;100168.69;1725431;83;21102;-55
2021/03/19 02:13:21;;;;;;;8.08;6.10;;;;;;;6.39;63.36;100172.61;1714822;84;21147;-55
2021/03/19 02:16:45;;;;;;;7.75;5.80;;;;;;;6.39;63.38;100171.30;1681828;84;21165;-64
2021/03/19 02:20:10;;;;;;;8.90;7.37;;;;;;;6.38;63.37;100172.62;1704607;83;21133;-65
2021/03/19 02:23:34;;;;;;;9.30;7.15;;;;;;;6.35;63.37;100173.47;1714679;83;21305;-55
2021/03/19 02:26:58;;;;;;;8.18;6.45;;;;;;;6.32;63.44;100173.91;1679378;83;21161;-65
2021/03/19 02:30:22;;;;;;;9.25;6.50;;;;;;;6.29;63.44;100177.83;1705992;83;21153;-64
2021/03/19 02:32:51;;;;;;;7.62;5.97;;;;;;;6.30;63.48;100178.27;1714639;84;21170;-65
2021/03/19 02:35:22;;;;;;;11.15;6.85;;;;;;;6.32;63.45;100179.14;1714070;84;21163;-65
2021/03/19 02:37:50;;;;;;;8.43;6.45;;;;;;;6.30;63.48;100180.88;1699537;84;21643;-56
2021/03/19 02:40:21;;;;;;;9.70;6.47;;;;;;;6.31;63.44;100186.55;1727874;82;21150;-65
2021/03/19 02:42:49;;;;;;;7.60;5.85;;;;;;;6.31;63.45;100187.40;1714958;83;21220;-65
2021/03/19 02:45:21;;;;;;;8.98;6.85;;;;;;;6.34;63.43;100187.86;1693145;84;21687;-56
2021/03/19 02:47:48;;;;;;;7.03;5.33;;;;;;;6.34;63.31;100187.86;1727425;83;21157;-65
2021/03/19 02:50:17;;;;;;;7.83;5.83;;;;;;;6.33;63.35;100189.58;1711120;84;21167;-65
2021/03/19 02:52:45;;;;;;;7.37;5.70;;;;;;;6.35;63.33;100189.16;1699226;84;21191;-65
2021/03/19 02:55:15;;;;;;;6.72;5.22;;;;;;;6.33;63.27;100197.42;1685650;84;21174;-55
2021/03/19 02:57:43;;;;;;;7.17;5.08;;;;;;;6.30;63.27;100201.78;1749012;81;21127;-65
2021/03/19 03:00:17;;;;;;;7.25;5.12;;;;;;;6.29;63.30;100200.04;1746748;82;21159;-65
2021/03/19 03:02:44;;;;;;;7.58;4.83;;;;;;;6.28;63.34;100199.60;1748993;82;21599;-65
2021/03/19 03:05:15;;;;;;;7.05;4.78;;;;;;;6.28;63.35;100203.52;1746740;82;21151;-65
2021/03/19 03:07:42;;;;;;;7.17;5.20;;;;;;;6.26;63.32;100199.58;1746446;82;21174;-57
2021/03/19 03:10:15;;;;;;;7.20;5.45;;;;;;;6.27;63.39;100202.63;1741798;82;21147;-65
2021/03/19 03:12:42;;;;;;;8.23;5.85;;;;;;;6.31;63.39;100198.30;1712337;84;21174;-65
2021/03/19 03:15:13;;;;;;;7.08;4.37;;;;;;;6.33;63.30;100207.88;1747078;81;21543;-56
2021/03/19 03:17:41;;;;;;;7.17;5.40;;;;;;;6.34;63.28;100199.17;1748356;81;21199;-65
2021/03/19 03:20:13;;;;;;;7.60;4.45;;;;;;;6.33;63.20;100201.80;1747942;81;21290;-65
2021/03/19 03:22:42;;;;;;;6.58;4.95;;;;;;;6.36;63.21;100202.66;1748365;82;21638;-65
2021/03/19 03:25:12;;;;;;;6.20;4.55;;;;;;;6.35;63.19;100205.29;1740558;81;21313;-56
2021/03/19 03:27:39;;;;;;;7.78;5.53;;;;;;;6.33;63.18;100203.11;1744007;82;21244;-56
2021/03/19 03:30:31;;;;;;;7.65;4.87;;;;;;;6.31;63.18;100206.14;1739758;82;21147;-56
2021/03/19 03:33:00;;;;;;;7.12;5.05;;;;;;;6.30;63.10;100209.63;1747708;81;21642;-58
2021/03/19 03:35:29;;;;;;;6.37;4.47;;;;;;;6.27;63.26;100206.55;1746225;82;21135;-56
2021/03/19 03:38:00;;;;;;;6.90;4.70;;;;;;;6.25;63.28;100213.09;1748680;81;21170;-56
2021/03/19 03:40:36;;;;;;;5.42;3.92;;;;;;;6.29;63.29;100207.43;1748049;81;21123;-64
2021/03/19 03:43:03;;;;;;;5.22;3.58;;;;;;;6.31;63.20;100210.92;1710786;84;21123;-56
2021/03/19 03:45:31;;;;;;;6.53;3.90;;;;;;;6.37;63.13;100213.56;1738339;82;21720;-64
2021/03/19 03:48:00;;;;;;;6.92;4.35;;;;;;;6.38;62.99;100215.30;1723181;81;21190;-56
2021/03/19 03:50:29;;;;;;;6.55;4.72;;;;;;;6.35;63.00;100215.30;1737441;82;21154;-56
2021/03/19 03:52:58;;;;;;;6.22;4.47;;;;;;;6.34;63.12;100212.23;1746870;81;21143;-64
2021/03/19 03:55:27;;;;;;;6.78;5.05;;;;;;;6.32;63.13;100218.34;1756744;81;21107;-64
2021/03/19 03:57:54;;;;;;;8.28;4.62;;;;;;;6.31;63.11;100221.38;1761936;81;21138;-56
2021/03/19 04:00:24;;;;;;;6.47;4.42;;;;;;;6.32;63.20;100222.27;1759897;81;21119;-56
2021/03/19 04:02:52;;;;;;;7.55;4.60;;;;;;;6.32;63.14;100228.36;1750758;81;21158;-64
2021/03/19 04:05:25;;;;;;;6.70;4.60;;;;;;;6.31;63.18;100228.37;1745864;81;21150;-56
2021/03/19 04:07:54;;;;;;;6.10;4.47;;;;;;;6.32;63.21;100230.11;1731302;83;21333;-55
2021/03/19 04:10:23;;;;;;;6.80;4.87;;;;;;;6.29;63.23;100226.18;1751078;81;21150;-64
2021/03/19 04:12:51;;;;;;;7.47;4.80;;;;;;;6.13;63.48;100233.10;1735244;81;21182;-55
2021/03/19 04:15:20;;;;;;;7.05;5.05;;;;;;;6.12;63.45;100229.60;1750289;81;21151;-64
2021/03/19 04:17:48;;;;;;;6.03;4.57;;;;;;;6.12;63.50;100234.83;1725571;83;21173;-64
2021/03/19 04:20:18;;;;;;;5.97;4.62;;;;;;;6.15;63.49;100236.15;1723892;83;21189;-64
2021/03/19 04:22:45;;;;;;;6.03;4.78;;;;;;;6.17;63.51;100240.09;1705261;84;21686;-63
2021/03/19 04:25:15;;;;;;;6.65;4.65;;;;;;;6.21;63.54;100240.51;1701436;84;21278;-56
2021/03/19 04:27:49;;;;;;;4.75;3.67;;;;;;;6.23;63.46;100247.51;1708057;84;21162;-57
2021/03/19 04:30:25;;;;;;;5.95;4.37;;;;;;;6.26;63.44;100245.33;1678497;85;21616;-63
2021/03/19 04:32:53;;;;;;;5.75;4.10;;;;;;;6.27;63.42;100244.91;1667059;85;21671;-63
2021/03/19 04:35:22;;;;;;;6.22;4.60;;;;;;;6.31;63.20;100242.74;1713134;83;21146;-64
2021/03/19 04:37:50;;;;;;;7.05;5.65;;;;;;;6.34;63.34;100244.92;1696407;84;21147;-63
2021/03/19 04:40:18;;;;;;;7.55;5.58;;;;;;;6.38;63.15;100243.20;1696474;84;21168;-64
2021/03/19 04:42:47;;;;;;;7.17;5.03;;;;;;;6.37;63.36;100241.45;1685226;85;21228;-57
2021/03/19 04:45:14;;;;;;;7.87;5.55;;;;;;;6.30;63.35;100248.39;1696220;84;21135;-56
2021/03/19 04:47:42;;;;;;;7.70;5.37;;;;;;;6.32;63.29;100249.72;1692767;83;21174;-56
2021/03/19 04:50:12;;;;;;;7.60;5.70;;;;;;;6.32;63.33;100253.19;1710088;83;21614;-56
2021/03/19 04:52:39;;;;;;;7.20;5.55;;;;;;;6.36;63.20;100251.02;1696396;84;21146;-56
2021/03/19 04:55:10;;;;;;;6.80;5.17;;;;;;;6.36;63.20;100255.40;1688254;84;21122;-65
2021/03/19 04:57:38;;;;;;;6.47;5.15;;;;;;;6.30;63.30;100256.23;1718410;83;21189;-56
2021/03/19 05:00:08;;;;;;;7.85;5.65;;;;;;;6.34;63.38;100254.52;1734932;82;21119;-56
2021/03/19 05:02:39;;;;;;;6.67;4.95;;;;;;;6.34;63.30;100253.21;1733220;82;21192;-56
2021/03/19 05:05:29;;;;;;;6.60;5.10;;;;;;;6.33;63.44;100256.69;1732698;82;21171;-65
2021/03/19 05:07:58;;;;;;;7.28;5.58;;;;;;;6.34;63.50;100255.83;1731743;82;21687;-57
2021/03/19 05:10:29;;;;;;;7.85;5.80;;;;;;;6.32;63.37;100257.11;1730662;82;21294;-56
2021/03/19 05:12:57;;;;;;;7.83;5.75;;;;;;;6.22;63.45;100257.94;1732829;81;21160;-56
2021/03/19 05:15:28;;;;;;;7.53;5.47;;;;;;;6.21;63.50;100257.08;1739549;82;21131;-56
2021/03/19 05:17:55;;;;;;;7.10;5.75;;;;;;;6.20;63.54;100259.67;1733566;82;21435;-65
2021/03/19 05:20:24;;;;;;;7.50;6.10;;;;;;;6.20;63.60;100259.26;1736451;82;21725;-56
2021/03/19 05:22:51;;;;;;;8.50;6.55;;;;;;;6.22;63.66;100262.75;1734126;82;21567;-66
2021/03/19 05:25:23;;;;;;;7.90;5.55;;;;;;;6.23;63.80;100260.99;1737200;81;21616;-56
2021/03/19 05:27:53;;;;;;;8.30;6.22;;;;;;;6.23;63.77;100262.30;1724759;82;21311;-56
2021/03/19 05:30:23;;;;;;;8.00;6.10;;;;;;;6.26;63.89;100266.23;1730266;82;21610;-56
2021/03/19 05:32:51;;;;;;;7.53;6.22;;;;;;;6.30;63.95;100265.38;1728401;82;21271;-56
2021/03/19 05:35:21;;;;;;;8.63;6.20;;;;;;;6.31;63.79;100268.44;1682377;85;21174;-56
2021/03/19 05:37:50;;;;;;;10.08;7.30;;;;;;;6.30;63.81;100267.14;1740144;82;21174;-65
2021/03/19 05:40:44;;;;;;;8.98;7.20;;;;;;;6.27;63.90;100268.43;1735104;82;21111;-56
2021/03/19 05:43:34;;;;;;;9.00;6.60;;;;;;;6.22;64.03;100271.89;1718598;83;21590;-56
2021/03/19 05:46:07;;;;;;;8.03;6.35;;;;;;;6.28;64.30;100269.73;1744354;82;21133;-56
2021/03/19 05:48:56;;;;;;;9.08;6.72;;;;;;;6.31;64.54;100274.97;1738454;82;21123;-56
2021/03/19 05:51:37;;;;;;;9.38;7.00;;;;;;;6.34;64.58;100279.35;1745417;82;21139;-64
2021/03/19 05:54:32;;;;;;;10.40;7.95;;;;;;;6.35;64.50;100283.27;1742906;82;21132;-55
2021/03/19 05:57:25;;;;;;;10.35;7.65;;;;;;;6.39;64.61;100292.01;1681338;84;21207;-55
2021/03/19 05:59:56;;;;;;;9.98;6.37;;;;;;;6.49;64.49;100291.14;1687022;83;21685;-62
2021/03/19 06:02:31;;;;;;;11.12;7.80;;;;;;;6.57;64.62;100295.53;1717957;83;21159;-56
2021/03/19 06:05:19;;;;;;;9.48;7.37;;;;;;;6.62;64.54;100297.73;1697401;84;21312;-56
2021/03/19 06:08:02;;;;;;;8.93;6.80;;;;;;;6.68;64.47;100302.53;1714072;84;21316;-62
2021/03/19 06:10:41;;;;;;;8.63;6.95;;;;;;;6.77;64.21;100303.01;1688627;84;21155;-55
2021/03/19 06:13:25;;;;;;;9.45;7.67;;;;;;;6.77;64.23;100300.39;1714862;83;21169;-57
2021/03/19 06:15:57;;;;;;;9.75;7.30;;;;;;;6.74;64.38;100314.77;1690184;83;21158;-61
2021/03/19 06:18:47;;;;;;;9.00;7.25;;;;;;;6.81;64.51;100313.92;1685298;84;21107;-63
2021/03/19 06:21:30;;;;;;;9.43;7.42;;;;;;;6.94;64.57;100320.45;1645737;86;21214;-55
2021/03/19 06:24:21;;;;;;;11.88;7.50;;;;;;;7.00;64.15;100327.02;1657462;84;21147;-55
2021/03/19 06:26:49;;;;;;;10.70;7.47;;;;;;;6.99;63.99;100323.55;1671095;84;21550;-62
2021/03/19 06:29:31;;;;;;;9.05;7.08;;;;;;;7.04;63.93;100324.84;1653798;84;21314;-63
2021/03/19 06:32:24;;;;;;;9.35;7.47;;;;;;;7.07;63.98;100322.23;1697281;84;21204;-63
2021/03/19 06:35:12;;;;;;;11.68;7.75;;;;;;;7.11;63.77;100322.67;1696975;83;21186;-54
2021/03/19 06:37:47;;;;;;;11.10;8.58;;;;;;;7.10;64.14;100323.55;1696557;84;21560;-55
2021/03/19 06:40:35;;;;;;;17.20;11.63;;;;;;;7.31;64.32;100324.87;1697136;84;21324;-55
2021/03/19 06:43:24;;;;;;;11.28;9.10;;;;;;;7.43;64.52;100317.88;1699102;83;21173;-63
2021/03/19 06:46:26;;;;;;;9.80;7.83;;;;;;;7.50;64.01;100324.42;1696123;83;21207;-62
2021/03/19 06:49:00;;;;;;;23.22;15.95;;;;;;;7.50;64.03;100326.62;1690266;83;21304;-62
2021/03/19 06:51:34;;;;;;;15.72;11.60;;;;;;;7.56;64.55;100325.28;1679239;85;21176;-56
2021/03/19 06:54:19;;;;;;;11.73;8.85;;;;;;;7.67;64.53;100324.41;1664239;85;21659;-54
2021/03/19 06:57:09;;;;;;;9.53;7.72;;;;;;;7.74;64.09;100319.15;1703000;84;21347;-56
2021/03/19 06:59:50;;;;;;;10.03;7.62;;;;;;;7.80;63.80;100323.95;1697495;83;21163;-55
2021/03/19 07:02:53;;;;;;;11.70;8.40;;;;;;;7.85;64.06;100324.39;1662381;85;21669;-63
2021/03/19 07:05:55;;;;;;;11.48;7.47;;;;;;;7.96;64.02;100324.78;1689602;83;21197;-62
2021/03/19 07:09:18;;;;;;;10.08;7.42;;;;;;;8.07;63.83;100329.56;1722416;83;21293;-54
2021/03/19 07:12:10;;;;;;;9.90;8.03;;;;;;;8.16;63.42;100328.69;1696251;84;21221;-61
2021/03/19 07:15:19;;;;;;;12.82;9.63;;;;;;;8.14;63.49;100324.75;1709358;83;21338;-55
2021/03/19 07:17:59;;;;;;;14.20;11.45;;;;;;;8.21;63.74;100334.77;1685473;85;21196;-54
2021/03/19 07:21:09;;;;;;;12.37;9.60;;;;;;;8.28;63.45;100327.31;1676672;83;21216;-54
2021/03/19 07:23:46;;;;;;;11.95;8.98;;;;;;;8.34;63.34;100331.69;1696549;83;21595;-55
2021/03/19 07:26:17;;;;;;;12.63;9.43;;;;;;;8.43;63.36;100336.86;1694619;85;21223;-62
2021/03/19 07:29:12;;;;;;;9.88;7.62;;;;;;;8.51;63.10;100333.38;1694928;85;21521;-55
2021/03/19 07:32:30;;;;;;;11.90;8.53;;;;;;;8.55;62.76;100336.42;1702224;83;21249;-61
2021/03/19 07:35:23;;;;;;;11.05;8.30;;;;;;;8.58;62.82;100337.30;1660077;84;21199;-55
2021/03/19 07:38:05;;;;;;;11.97;9.93;;;;;;;8.57;62.21;100339.91;1694833;85;21198;-63
2021/03/19 07:40:57;;;;;;;12.13;9.35;;;;;;;8.48;62.37;100339.48;1694810;85;21179;-63
2021/03/19 07:43:44;;;;;;;9.63;8.15;;;;;;;8.48;62.65;100336.45;1694168;83;21146;-55
2021/03/19 07:46:32;;;;;;;22.70;10.58;;;;;;;8.55;62.93;100331.17;1684256;85;21179;-56
2021/03/19 07:49:41;;;;;;;19.48;9.73;;;;;;;8.65;63.06;100331.98;1683287;85;21093;-55
2021/03/19 07:52:37;;;;;;;10.18;8.28;;;;;;;8.73;62.75;100335.03;1693744;84;21591;-56
2021/03/19 07:55:22;;;;;;;9.88;7.70;;;;;;;8.82;62.71;100334.55;1684235;85;21186;-62
2021/03/19 07:58:01;;;;;;;10.30;8.58;;;;;;;8.88;62.61;100335.80;1685020;85;21153;-56
2021/03/19 08:00:40;;;;;;;10.80;8.83;;;;;;;8.91;62.40;100333.16;1714594;82;21306;-56
2021/03/19 08:03:23;;;;;;;13.18;8.78;;;;;;;8.97;62.72;100331.81;1707205;83;21137;-56
2021/03/19 08:05:52;;;;;;;10.00;7.60;;;;;;;9.06;62.90;100328.24;1689226;85;21319;-64
2021/03/19 08:08:40;;;;;;;10.48;8.48;;;;;;;9.22;63.05;100331.66;1689695;85;21588;-63
2021/03/19 08:11:29;;;;;;;10.30;7.95;;;;;;;9.34;62.76;100328.06;1679596;84;21206;-63
2021/03/19 08:14:15;;;;;;;12.35;8.83;;;;;;;9.45;62.44;100327.53;1694215;84;21123;-56
2021/03/19 08:16:59;;;;;;;16.97;13.10;;;;;;;9.62;62.50;100330.01;1701435;83;21155;-63
2021/03/19 08:19:35;;;;;;;16.52;14.07;;;;;;;9.68;62.11;100333.02;1705708;83;21331;-62
2021/03/19 08:22:25;;;;;;;33.23;29.63;;;;;;;9.72;61.99;100324.64;1702202;83;21615;-63
2021/03/19 08:25:22;;;;;;;25.62;20.80;;;;;;;9.76;61.84;100325.93;1694949;85;21186;-56
2021/03/19 08:28:05;;;;;;;18.17;16.20;;;;;;;9.78;61.63;100325.91;1694818;83;21181;-62
2021/03/19 08:31:15;;;;;;;29.48;26.42;;;;;;;9.76;61.92;100327.25;1664565;85;21353;-62
2021/03/19 08:34:10;;;;;;;25.48;17.20;;;;;;;9.80;61.88;100325.45;1683814;84;21199;-62
2021/03/19 08:36:47;;;;;;;13.78;11.70;;;;;;;9.87;61.39;100327.59;1694884;85;21140;-56
2021/03/19 08:39:35;;;;;;;11.63;9.90;;;;;;;10.02;61.37;100332.67;1704499;83;21174;-57
2021/03/19 08:42:20;;;;;;;12.28;8.53;;;;;;;10.17;60.95;100327.67;1703728;83;21303;-57
2021/03/19 08:44:48;;;;;;;9.60;6.58;;;;;;;10.24;60.79;100325.86;1716847;83;21281;-63
2021/03/19 08:47:32;;;;;;;8.83;6.70;;;;;;;10.21;59.12;100321.49;1698099;83;21142;-56
2021/03/19 08:50:26;;;;;;;8.88;7.12;;;;;;;10.18;58.55;100320.67;1679161;85;21167;-56
2021/03/19 08:53:20;;;;;;;10.00;7.30;;;;;;;10.10;58.19;100325.57;1681150;85;21172;-56
2021/03/19 08:56:04;;;;;;;8.03;6.92;;;;;;;9.99;58.74;100326.13;1638156;85;21167;-56
2021/03/19 08:58:37;;;;;;;10.35;7.20;;;;;;;9.99;58.10;100329.21;1723596;82;21149;-62
2021/03/19 09:01:06;;;;;;;10.65;7.25;;;;;;;10.00;59.26;100329.64;1714795;82;21311;-63
2021/03/19 09:03:48;;;;;;;10.53;7.50;;;;;;;10.05;58.91;100330.47;1707768;83;21287;-62
2021/03/19 09:06:26;;;;;;;10.53;6.42;;;;;;;10.08;58.74;100328.66;1709935;82;21155;-62
2021/03/19 09:09:15;;;;;;;11.78;7.42;;;;;;;10.13;57.91;100322.05;1716235;82;21292;-56
2021/03/19 09:12:00;;;;;;;11.30;7.00;;;;;;;10.11;57.41;100326.00;1742401;82;21669;-56
2021/03/19 09:14:37;;;;;;;8.45;6.60;;;;;;;9.96;57.17;100320.47;1724529;82;21277;-56
2021/03/19 09:17:06;;;;;;;10.55;7.00;;;;;;;9.90;57.12;100324.93;1706294;84;21139;-56
2021/03/19 09:19:44;;;;;;;10.00;6.90;;;;;;;9.88;57.93;100320.13;1706438;84;21191;-62
2021/03/19 09:22:27;;;;;;;8.15;5.92;;;;;;;9.91;57.50;100322.73;1714925;82;21528;-55
2021/03/19 09:25:16;;;;;;;8.20;6.03;;;;;;;10.02;57.79;100322.15;1675784;84;21137;-56
2021/03/19 09:28:08;;;;;;;9.75;5.05;;;;;;;10.15;58.20;100323.33;1687620;84;21171;-57
2021/03/19 09:30:42;;;;;;;7.75;5.42;;;;;;;10.15;57.49;100320.28;1723935;82;21545;-56
2021/03/19 09:33:14;;;;;;;11.03;6.40;;;;;;;10.16;56.38;100319.36;1713113;83;21150;-62
2021/03/19 09:35:47;;;;;;;6.75;5.25;;;;;;;10.16;56.56;100320.67;1716789;82;21472;-57
2021/03/19 09:38:33;;;;;;;9.60;5.25;;;;;;;10.18;55.58;100328.10;1684762;85;21237;-61
2021/03/19 09:41:04;;;;;;;11.18;5.87;;;;;;;10.08;55.41;100331.75;1698884;83;21164;-62
2021/03/19 09:43:41;;;;;;;;;;;;;;;10.01;56.04;100330.92;1685637;85;21156;-57
2021/03/19 09:46:24;;;;;;;8.23;4.85;;;;;;;9.95;55.92;100327.92;1685072;85;20161;-63
2021/03/19 09:48:57;;;;;;;8.05;5.05;;;;;;;9.93;55.90;100334.10;1673943;85;21611;-57
2021/03/19 09:51:40;;;;;;;9.05;4.92;;;;;;;9.91;56.54;100335.87;1681842;85;21176;-57
2021/03/19 09:54:31;;;;;;;7.85;5.28;;;;;;;9.91;55.97;100331.47;1699168;83;21167;-55
2021/03/19 09:57:25;;;;;;;7.30;5.10;;;;;;;9.90;56.26;100332.36;1696216;84;21619;-62
2021/03/19 10:00:07;;;;;;;7.20;5.25;;;;;;;10.01;55.77;100331.38;1692409;84;21175;-56
2021/03/19 10:02:41;;;;;;;8.60;6.03;;;;;;;10.03;55.65;100330.92;1677648;84;21159;-62
2021/03/19 10:05:23;;;;;;;7.08;5.15;;;;;;;9.91;55.89;100332.79;1672388;86;21311;-57
2021/03/19 10:07:56;;;;;;;5.90;4.37;;;;;;;9.89;55.55;100337.65;1699998;83;21150;-59
2021/03/19 10:10:38;;;;;;;6.60;5.00;;;;;;;9.92;55.63;100332.36;1677323;83;21154;-56
2021/03/19 10:13:25;;;;;;;7.05;4.70;;;;;;;9.97;56.60;100336.67;1665730;85;21618;-63
2021/03/19 10:15:55;;;;;;;7.22;4.55;;;;;;;10.05;55.67;100337.04;1678751;85;21586;-55
2021/03/19 10:18:41;;;;;;;4.87;3.62;;;;;;;10.03;55.40;100335.72;1685682;85;21250;-56
2021/03/19 10:21:12;;;;;;;9.58;4.90;;;;;;;10.02;55.76;100338.38;1684785;85;21176;-56
2021/03/19 10:23:54;;;;;;;6.45;4.25;;;;;;;10.10;56.34;100337.86;1685271;85;21524;-62
2021/03/19 10:26:29;;;;;;;6.47;4.40;;;;;;;10.19;56.45;100339.52;1685163;85;21532;-62
2021/03/19 10:29:17;;;;;;;7.45;4.53;;;;;;;10.22;55.91;100335.53;1678894;85;21571;-57
2021/03/19 10:32:00;;;;;;;9.43;4.58;;;;;;;10.27;55.74;100332.41;1678068;85;21585;-57
2021/03/19 10:34:48;;;;;;;5.47;4.00;;;;;;;10.26;55.32;100342.05;1686008;85;21175;-56
2021/03/19 10:37:40;;;;;;;6.72;4.45;;;;;;;10.23;55.06;100342.53;1679221;85;21293;-62
2021/03/19 10:40:15;;;;;;;7.05;5.40;;;;;;;10.08;55.36;100343.58;1683615;85;21504;-56
2021/03/19 10:43:09;;;;;;;8.25;4.67;;;;;;;10.09;55.63;100344.02;1681132;84;21100;-62
2021/03/19 10:45:47;;;;;;;7.22;4.85;;;;;;;10.25;55.87;100337.67;1823511;77;22609;-61
2021/03/19 10:48:24;;;;;;;6.92;4.47;;;;;;;10.37;56.74;100333.16;1782188;80;21538;-56
2021/03/19 10:51:07;;;;;;;5.97;4.30;;;;;;;10.49;56.09;100332.16;1759522;80;21155;-62
2021/03/19 10:54:04;;;;;;;4.85;3.75;;;;;;;9.64;56.31;100341.80;1792852;80;21597;-62
2021/03/19 10:56:32;;;;;;;5.15;3.95;;;;;;;9.27;57.58;100344.31;1744692;80;21626;-56
2021/03/19 10:59:11;;;;;;;5.65;4.42;;;;;;;9.05;58.11;100333.09;1780855;80;21131;-62
2021/03/19 11:01:46;;;;;;;7.15;5.10;;;;;;;9.09;59.32;100337.41;1762426;80;21341;-56
2021/03/19 11:04:34;;;;;;;6.45;5.10;;;;;;;9.33;60.15;100340.77;1728169;83;21690;-56
2021/03/19 11:07:26;;;;;;;6.17;4.67;;;;;;;10.48;58.71;100333.05;1697852;84;21202;-57
2021/03/19 11:10:07;;;;;;;5.78;4.58;;;;;;;10.97;57.65;100323.62;1717276;83;21146;-61
2021/03/19 11:12:47;;;;;;;7.25;5.00;;;;;;;11.31;57.01;100324.41;1740862;81;21661;-55
2021/03/19 11:15:32;;;;;;;9.63;7.00;;;;;;;11.54;57.52;100325.78;1728498;83;21169;-55
2021/03/19 11:21:18;;;;;;;6.45;4.42;;;;;;;11.84;55.70;100316.92;1832276;77;22132;-61
2021/03/19 11:24:04;;;;;;;8.20;4.40;;;;;;;11.83;54.98;100321.31;1761995;81;21115;-56
2021/03/19 11:26:35;;;;;;;6.12;4.20;;;;;;;11.57;51.97;100310.80;1733951;81;21171;-55
2021/03/19 11:29:26;;;;;;;8.60;4.37;;;;;;;11.35;53.34;100311.61;1730482;82;21811;-55
2021/03/19 11:32:13;;;;;;;6.03;4.83;;;;;;;11.33;53.96;100311.20;1747343;81;21151;-56
2021/03/19 11:34:48;;;;;;;5.22;4.17;;;;;;;11.35;53.83;100311.61;1743774;81;21154;-62
2021/03/19 11:37:26;;;;;;;4.47;3.67;;;;;;;11.31;52.97;100306.83;1731801;81;21653;-63
2021/03/19 11:40:03;;;;;;;23.30;12.07;;;;;;;11.14;52.28;100312.83;1740153;81;21841;-56
2021/03/19 11:42:44;;;;;;;11.03;6.83;;;;;;;11.01;52.38;100305.58;1730407;82;21196;-56
2021/03/19 11:45:19;;;;;;;12.68;6.70;;;;;;;10.94;52.29;100306.09;1729782;82;21210;-56
2021/03/19 11:48:01;;;;;;;9.13;6.50;;;;;;;10.91;53.01;100303.97;1729964;82;21155;-56
2021/03/19 11:50:36;;;;;;;6.40;5.10;;;;;;;10.99;52.95;100304.72;1712365;83;21158;-63
2021/03/19 11:53:08;;;;;;;10.53;8.48;;;;;;;11.04;52.61;100300.69;1694908;84;21162;-56
2021/03/19 11:55:47;;;;;;;7.42;4.90;;;;;;;11.05;53.62;100298.48;1686040;85;21194;-63
2021/03/19 11:58:17;;;;;;;11.30;9.05;;;;;;;11.01;52.43;100294.58;1699485;83;21145;-57
2021/03/19 12:00:45;;;;;;;308.43;199.80;;;;;;;10.96;53.20;100300.81;1712720;83;21181;-63
2021/03/19 12:03:31;;;;;;;35.80;25.40;;;;;;;10.90;53.74;100304.86;1702549;83;21162;-56
2021/03/19 12:06:01;;;;;;;18.30;11.65;;;;;;;10.91;53.59;100304.81;1698253;84;21123;-62
2021/03/19 12:08:30;;;;;;;8.78;6.28;;;;;;;10.82;53.14;100304.52;1716141;83;21599;-58
2021/03/19 12:10:58;;;;;;;4.72;3.50;;;;;;;10.68;53.13;100302.09;1714614;83;21166;-63
2021/03/19 12:13:26;;;;;;;4.50;3.42;;;;;;;10.23;52.47;100297.81;1720506;83;21737;-57
2021/03/19 12:15:55;;;;;;;33.02;18.87;;;;;;;10.13;53.30;100306.27;1711416;83;21162;-57
2021/03/19 12:18:25;;;;;;;8.08;6.00;;;;;;;10.08;54.31;100308.94;1728185;81;21355;-58
2021/03/19 12:20:54;;;;;;;48.80;30.45;;;;;;;10.15;53.64;100308.87;1716568;83;21170;-57
2021/03/19 12:23:21;;;;;;;10.82;6.97;;;;;;;10.13;54.28;100303.64;1748916;81;21621;-63
2021/03/19 12:25:50;;;;;;;10.53;5.30;;;;;;;9.41;56.26;100309.17;1739606;81;21151;-57
2021/03/19 12:28:20;;;;;;;9.28;4.80;;;;;;;9.29;57.39;100312.31;1733380;82;21660;-63